This is the latest recevied weather packets stored in our database for station/object HK6RM-19. If no packets are shown the sender has not sent any weather packets the latest 1 day(s).
| Time | Temp. | Humidity | Pressure | Rain* | Wind** | Luminosity | Snow |
|---|---|---|---|---|---|---|---|
| 1778099410 | 20° C | 69% | 1010 hPa | 0 mm | - | - | - |
| 1778098569 | 20.56° C | 69% | 1010 hPa | 0 mm | - | - | - |
| 1778096888 | 21.67° C | 69% | 1010 hPa | 0 mm | - | - | - |
| 1778094366 | 21.67° C | 69% | 1011 hPa | 0 mm | - | - | - |
| 1778092685 | 21.67° C | 69% | 1011 hPa | 0 mm | - | - | - |
| 1778091003 | 19.44° C | 75% | 1012 hPa | 0 mm | - | - | - |
| 1778089322 | 19.44° C | 75% | 1013 hPa | 0 mm | - | - | - |
| 1778083433 | 19.44° C | 73% | 1014 hPa | 0 mm | - | - | - |
| 1778080910 | 19.44° C | 73% | 1015 hPa | 0 mm | - | - | - |
| 1778079229 | 20° C | 73% | 1015 hPa | 0 mm | - | - | - |
| 1778076704 | 17.22° C | 82% | 1016 hPa | 0 mm | - | - | - |
| 1778074182 | 17.22° C | 82% | 1017 hPa | 0 mm | - | - | - |
| 1778070817 | 14.44° C | 94% | 1017 hPa | 0 mm | - | - | - |
| 1778069975 | 14.44° C | 94% | 1017 hPa | 0 mm | - | - | - |
| 1778068294 | 15° C | 94% | 1017 hPa | 0 mm | - | - | - |
| 1778064930 | 11.67° C | 92% | 1017 hPa | 0 mm | - | - | - |
| 1778063249 | 11.67° C | 92% | 1016 hPa | 0 mm | - | - | - |
| 1778062407 | 11.67° C | 92% | 1016 hPa | 0 mm | - | - | - |
| 1778060726 | 12.22° C | 92% | 1016 hPa | 0 mm | - | - | - |
| 1778059885 | 12.78° C | 92% | 1016 hPa | 0 mm | - | - | - |
| 1778059044 | 13.33° C | 92% | 1016 hPa | 0 mm | - | - | - |
| 1778058203 | 13.89° C | 92% | 1016 hPa | 0 mm | - | - | - |
| 1778056521 | 14.44° C | 92% | 1016 hPa | 0 mm | - | - | - |
| 1778054839 | 16.67° C | 92% | 1016 hPa | 0 mm | - | - | - |
| 1778052312 | 16.67° C | 94% | 1016 hPa | 0 mm | - | - | - |
* Rain latest hour (hover to see other rain measurements)
** Current wind speed in m/s (hover to see current wind gust speed)